• Join FlightAware (Why Join?)
  • Login
  • US Flag 
06:30PM EDT


 

Airport Tracker/Info


-or-


 

Live Flight TrackerFlight Track Log ✈ DAL61 ✈ 30-Jan-2014 ✈ KATL - SBGL / GIG

Flight Track Log - Related Links

Times and Time Zones

All times are in EST time to prevent confusion due to time zone crossing. See the DAL61 flight status page for this flight to view local times or setup timezone preferences in your user account.

Time Position Orientation Groundspeed Altitude Reporting Facility
EST Latitude Longitude Course Direction KTS MPH feet Rate Location/Type
10:24PM 33.6333 -84.3500 145° Southeast 201 231 3,000  Level Atlanta TRACON
10:25PM 33.6000 -84.2833 121° Southeast 256 295 4,500 2,040 Climbing Atlanta TRACON
10:26PM 33.5333 -84.2667 168° South 268 308 6,900 2,280 Climbing Atlanta TRACON
10:27PM 33.2632 -84.1463 140° Southeast  Level FlightAware Approximate
10:27PM 33.4017 -84.2778 184° South 309 356 10,800  Level Atlanta Center
10:28PM 33.1659 -84.0491 140° Southeast  Level FlightAware Approximate
10:28PM 33.3183 -84.2178 149° Southeast 309 356 12,200  Level Atlanta Center
10:29PM 33.0723 -83.9574 145° Southeast  Level FlightAware Approximate
10:29PM 33.2306 -84.1406 144° Southeast 361 415 13,600  Level Atlanta Center
10:30PM 33.1325 -84.0586 145° Southeast 411 473 15,500 2,100 Climbing Atlanta Center
10:31PM 33.0325 -83.9794 146° Southeast 431 496 17,900 2,160 Climbing Atlanta Center
10:32PM 32.9300 -83.8978 146° Southeast 436 502 19,900 1,620 Climbing Atlanta Center
10:33PM 32.8256 -83.8139 146° Southeast 442 509 21,200 1,500 Climbing Atlanta Center
10:34PM 32.7167 -83.7278 146° Southeast 456 525 22,900 1,500 Climbing Atlanta Center
10:35PM 32.6058 -83.6369 145° Southeast 472 543 24,300 1,200 Climbing Atlanta Center
10:36PM 32.5033 -83.5586 147° Southeast 487 560 25,400 1,500 Climbing Atlanta Center
10:37PM 32.3903 -83.4658 145° Southeast 487 560 27,300 1,560 Climbing Atlanta Center
10:38PM 32.2750 -83.3756 146° Southeast 487 560 28,600 1,440 Climbing Atlanta Center
10:39PM 32.1639 -83.2856 146° Southeast 487 560 30,200 1,440 Climbing Atlanta Center
10:41PM 32.0075 -83.1622 146° Southeast 487 560 32,000 720 Climbing Jacksonville Center
10:42PM 31.9011 -83.0811 147° Southeast 474 545 32,000  Level Jacksonville Center
10:43PM 31.7947 -82.9953 146° Southeast 469 540 32,000  Level Jacksonville Center
10:44PM 31.6842 -82.9072 146° Southeast 469 540 32,000  Level Jacksonville Center
10:45PM 31.5714 -82.8194 146° Southeast 480 552 32,000  Level Jacksonville Center
10:46PM 31.4586 -82.7342 147° Southeast 480 552 32,000  Level Jacksonville Center
10:47PM 31.3458 -82.6494 147° Southeast 480 552 32,000  Level Jacksonville Center
10:48PM 31.2453 -82.5742 147° Southeast 480 552 32,000 -60 Level Jacksonville Center
10:49PM 31.1386 -82.4919 147° Southeast 475 547 31,900  Descending Jacksonville Center
10:50PM 31.0278 -82.4078 147° Southeast 475 547 32,000  Climbing Jacksonville Center
10:51PM 30.9189 -82.3236 146° Southeast 475 547 31,900  Descending Jacksonville Center
10:52PM 30.8139 -82.2444 147° Southeast 470 541 32,000  Climbing Jacksonville Center
10:58PM 30.2063 -81.6989 147° Southeast 487 560 32,000  Level FlightAware ADS-B (KMCO)
10:59PM 30.1091 -81.5411 125° Southeast 484 557 32,000  Level FlightAware ADS-B (KMCO)
11:00PM 30.0336 -81.4184 125° Southeast 479 551 32,000  Level FlightAware ADS-B (KMCO)
11:01PM 29.9884 -81.3463 126° Southeast 469 540 32,000  Level FlightAware ADS-B (KMCO)
11:01PM 29.9282 -81.2490 125° Southeast 478 550 32,000  Level FlightAware ADS-B (KMCO)
11:02PM 29.8735 -81.1602 125° Southeast 490 564 32,000  Level FlightAware ADS-B (KMCO)
11:03PM 29.8213 -81.0770 126° Southeast 495 570 32,000  Level FlightAware ADS-B (KMCO)
11:03PM 29.7886 -81.0248 126° Southeast 500 575 32,000  Level FlightAware ADS-B (KMCO)
11:04PM 29.7093 -80.8981 126° Southeast 505 581 32,000  Level FlightAware ADS-B (KMCO)
11:05PM 29.6401 -80.7882 126° Southeast 507 583 32,000  Level FlightAware ADS-B (KMCO)
11:05PM 29.5878 -80.7072 127° Southeast 503 579 32,000  Level FlightAware ADS-B (KMCO)
11:06PM 29.5184 -80.6008 127° Southeast 497 572 32,000  Level FlightAware ADS-B (KMCO)
11:07PM 29.4579 -80.5075 127° Southeast 490 564 32,000  Level FlightAware ADS-B (KMCO)
11:08PM 29.4110 -80.4365 127° Southeast 482 555 32,000  Level FlightAware ADS-B (KMCO)
11:08PM 29.3495 -80.3450 128° Southeast 474 545 32,000  Level FlightAware ADS-B (KMCO)
11:09PM 29.2992 -80.2704 128° Southeast 469 540 32,000  Level FlightAware ADS-B (KMCO)
11:10PM 29.2435 -80.1873 128° Southeast 461 531 32,000  Level FlightAware ADS-B (KMCO)
11:10PM 29.1965 -80.1174 128° Southeast 457 526 32,000  Level FlightAware ADS-B (KMCO)
11:14PM 28.8950 -79.6721 128° Southeast 453 521 32,000  Level FlightAware ADS-B (KMCO)
11:15PM 28.8506 -79.5958 128° Southeast 452 520 32,000  Level Miami Center
11:16PM 28.7733 -79.4828 128° Southeast 452 520 32,000  Level Miami Center
11:17PM 28.6983 -79.3672 126° Southeast 452 520 32,000 -60 Level Miami Center
11:18PM 28.6253 -79.2450 124° Southeast 457 526 31,900 -60 Descending Miami Center
11:19PM 28.6089 -79.0886 97° East 463 533 31,900  Level Miami Center
11:20PM 28.6031 -78.9278 92° East 476 548 31,900  Level Miami Center
11:21PM 28.5969 -78.7692 92° East 495 570 31,900  Level Miami Center
11:22PM 28.5864 -78.6083 94° East 508 585 31,900  Level Miami Center
11:23PM 28.5819 -78.4475 92° East 508 585 31,900  Level Miami Center
11:24PM 28.5461 -78.2933 105° East 508 585 31,900  Level Miami Center
11:25PM 28.4806 -78.1553 118° Southeast 496 571 32,000  Climbing Miami Center
11:26PM 28.4022 -78.0294 125° Southeast 484 557 32,000 -60 Level Miami Center
11:27PM 28.3133 -77.9128 131° Southeast 484 557 31,900  Descending Miami Center
11:32PM 27.8368 -77.2891 131° Southeast 477 549 32,000  Climbing FlightAware ADS-B (MYPI / PID)
11:33PM 27.7817 -77.2172 131° Southeast 481 554 32,000  Level FlightAware ADS-B (MYPI / PID)
11:37PM 27.3697 -76.6830 131° Southeast 489 563 32,000  Level FlightAware ADS-B (MYPI / PID)
11:39PM 27.2190 -76.4892 131° Southeast 489 563 32,000  Level FlightAware ADS-B (MYPI / PID)
11:40PM 27.1655 -76.4205 131° Southeast 488 562 32,000  Level FlightAware ADS-B (MYPI / PID)
11:41PM 27.0973 -76.3332 131° Southeast 486 559 32,000  Level FlightAware ADS-B (MYPI / PID)
11:41PM 27.0899 -76.3237 131° Southeast 486 559 32,000  Level FlightAware ADS-B (MYPI / PID)
11:42PM 26.9853 -76.1803 131° Southeast 486 559 32,000  Level Miami Center
11:43PM 26.8969 -76.0711 132° Southeast 486 559 32,000  Level Miami Center
11:44PM 26.8086 -75.9578 131° Southeast 485 558 32,000  Level Miami Center
11:45PM 26.7222 -75.8492 132° Southeast 474 545 32,000  Level Miami Center
11:46PM 26.6442 -75.7475 131° Southeast 465 535 32,000  Level Miami Center
11:47PM 26.5492 -75.6322 133° Southeast 469 540 32,000  Level Miami Center
11:48PM 26.4647 -75.5239 131° Southeast 469 540 32,000  Level Miami Center
11:49PM 26.3717 -75.4092 132° Southeast 475 547 32,000  Level Miami Center
11:50PM 26.2911 -75.3058 131° Southeast 470 541 32,000 180 Level Miami Center
11:51PM 26.2044 -75.1958 131° Southeast 469 540 32,400 480 Climbing Miami Center
11:52PM 26.1175 -75.0858 131° Southeast 469 540 33,000 300 Climbing Miami Center
11:53PM 26.0219 -74.9742 134° Southeast 475 547 33,000  Level Miami Center
11:54PM 25.9369 -74.8644 131° Southeast 475 547 33,000  Level Miami Center
11:55PM 25.8517 -74.7550 131° Southeast 475 547 33,000  Level Miami Center
11:56PM 25.7519 -74.6414 134° Southeast 488 562 33,000  Level Miami Center
11:57PM 25.6689 -74.5347 131° Southeast 480 552 33,000  Level Miami Center
11:58PM 25.5728 -74.4167 132° Southeast 491 565 33,000  Level Miami Center
11:59PM 25.4833 -74.3103 133° Southeast 491 565 33,000  Level Miami Center
12:00AM 25.4042 -74.2131 132° Southeast 486 559 33,000  Level Miami Center
12:01AM 25.3122 -74.1003 132° Southeast 481 554 33,000  Level Miami Center
12:02AM 25.2225 -73.9919 132° Southeast 492 566 33,000  Level Miami Center
12:03AM 25.1283 -73.8750 132° Southeast 497 572 33,000  Level Miami Center
12:04AM 25.0361 -73.7647 133° Southeast 490 564 33,000  Level Miami Center
12:05AM 24.9439 -73.6550 133° Southeast 490 564 33,000  Level Miami Center
12:06AM 24.8494 -73.5406 132° Southeast 490 564 33,000  Level Miami Center
12:07AM 24.7633 -73.4331 131° Southeast 490 564 33,000  Level Miami Center
12:08AM 24.6669 -73.3239 134° Southeast 490 564 33,000  Level Miami Center
12:09AM 24.5764 -73.2122 132° Southeast 490 564 33,000  Level Miami Center
12:10AM 24.4839 -73.1031 133° Southeast 490 564 33,000  Level Miami Center
12:11AM 24.3892 -72.9919 133° Southeast 490 564 33,000  Level Miami Center
12:12AM 24.2964 -72.8808 132° Southeast 490 564 33,000  Level Miami Center
12:13AM 24.2036 -72.7700 133° Southeast 490 564 33,000  Level Miami Center
12:14AM 24.1086 -72.6592 133° Southeast 490 564 33,000  Level Miami Center
12:15AM 24.0219 -72.5531 132° Southeast 483 556 33,000  Level Miami Center
12:16AM 23.9225 -72.4383 133° Southeast 493 567 33,000  Level Miami Center
12:17AM 23.8294 -72.3303 133° Southeast 493 567 33,000  Level Miami Center
12:18AM 23.7342 -72.2228 134° Southeast 493 567 33,000  Level Miami Center
12:19AM 23.6411 -72.1128 133° Southeast 493 567 33,000  Level Miami Center
12:20AM 23.5497 -72.0028 132° Southeast 493 567 33,000  Level Miami Center
12:21AM 23.4567 -71.8978 134° Southeast 493 567 33,000  Level Miami Center
12:22AM 23.3631 -71.7861 132° Southeast 493 567 33,000  Level Miami Center
12:23AM 23.2697 -71.6792 134° Southeast 493 567 33,000  Level Miami Center
12:24AM 23.1761 -71.5700 133° Southeast 493 567 33,000  Level Miami Center
12:25AM 23.0803 -71.4611 134° Southeast 493 567 33,000  Level Miami Center
12:26AM 22.9867 -71.3525 133° Southeast 493 567 33,000  Level Miami Center
12:27AM 22.8931 -71.2461 134° Southeast 493 567 33,000  Level Miami Center
12:28AM 22.7969 -71.1375 134° Southeast 493 567 33,000  Level Miami Center
12:29AM 22.7031 -71.0294 133° Southeast 493 567 33,000  Level Miami Center
12:30AM 22.6092 -70.9211 133° Southeast 493 567 33,000  Level Miami Center
12:31AM 22.5111 -70.8133 135° Southeast 488 562 33,000  Level Miami Center
12:32AM 22.4169 -70.7056 133° Southeast 495 570 33,000  Level Miami Center
12:35AM 22.1172 -70.3658 134° Southeast 501 577 33,000  Level Miami Center
12:36AM 22.0186 -70.2589 135° Southeast 501 577 33,000  Level Miami Center
12:37AM 21.9222 -70.1497 134° Southeast 501 577 33,000  Level Miami Center
12:38AM 21.8256 -70.0431 134° Southeast 501 577 33,000  Level Miami Center
12:39AM 21.7269 -69.9319 134° Southeast 506 582 33,000  Level Miami Center
12:40AM 21.6239 -69.8236 136° Southeast 506 582 33,000  Level Miami Center
12:51AM 20.5833 -68.6667 135° Southeast 510 587 33,000  Level San Juan Center
12:52AM 20.6128 -68.7044 134° Southeast  Level FlightAware Approximate
12:52AM 20.4833 -68.5500 132° Southeast 510 587 33,000  Level San Juan Center
12:53AM 20.5249 -68.6068 134° Southeast  Level FlightAware Approximate
12:53AM 20.3667 -68.4500 141° Southeast 510 587 33,000  Level San Juan Center
12:54AM 20.4370 -68.5094 134° Southeast  Level FlightAware Approximate
12:54AM 20.2500 -68.3500 141° Southeast 510 587 33,000  Level San Juan Center
12:55AM 20.3480 -68.4131 135° Southeast  Level FlightAware Approximate
12:55AM 20.1500 -68.2667 142° Southeast 510 587 33,000  Level San Juan Center
12:56AM 20.2590 -68.3169 135° Southeast  Level FlightAware Approximate
12:56AM 20.0333 -68.1667 141° Southeast 510 587 33,000  Level San Juan Center
12:57AM 19.9167 -68.0833 146° Southeast 510 587 33,000  Level San Juan Center
12:58AM 19.8000 -67.9833 141° Southeast 510 587 33,000  Level San Juan Center
12:59AM 19.7000 -67.9000 142° Southeast 510 587 33,000  Level San Juan Center
01:00AM 19.5833 -67.8000 141° Southeast 510 587 33,000  Level San Juan Center
01:01AM 19.4833 -67.7167 142° Southeast 490 564 33,000  Level San Juan Center
01:02AM 19.3667 -67.6167 141° Southeast 500 575 33,000  Level San Juan Center
01:03AM 19.2500 -67.5333 146° Southeast 500 575 33,000  Level San Juan Center
01:04AM 19.1500 -67.4500 142° Southeast 490 564 33,000  Level San Juan Center
01:05AM 19.0500 -67.3500 137° Southeast 490 564 33,000  Level San Juan Center
01:06AM 18.9333 -67.2667 146° Southeast 490 564 33,000  Level San Juan Center
01:09AM 18.6000 -67.0000 129° Southeast 500 575 33,000  Level San Juan Center
01:10AM 18.5000 -66.9167 142° Southeast 490 564 33,000  Level San Juan Center
01:11AM 18.3833 -66.8167 141° Southeast 500 575 33,000  Level San Juan Center
01:12AM 18.2667 -66.7167 141° Southeast 510 587 33,000  Level San Juan Center
01:13AM 18.1500 -66.6333 146° Southeast 510 587 33,000  Level San Juan Center
01:14AM 18.0333 -66.5500 146° Southeast 510 587 33,000  Level San Juan Center
01:15AM 17.9500 -66.4667 136° Southeast 500 575 33,000  Level San Juan Center
01:16AM 17.8333 -66.3833 146° Southeast 500 575 33,000  Level San Juan Center
01:17AM 17.7167 -66.2833 141° Southeast 500 575 33,000  Level San Juan Center
01:18AM 17.6167 -66.2000 142° Southeast 500 575 33,000  Level San Juan Center
01:19AM 17.5000 -66.1167 146° Southeast 490 564 33,000  Level San Juan Center
01:20AM 17.4000 -66.0333 142° Southeast 490 564 33,000  Level San Juan Center
01:21AM 17.2833 -65.9333 141° Southeast 490 564 33,000  Level San Juan Center
01:22AM 17.1833 -65.8500 141° Southeast 490 564 33,000  Level San Juan Center
01:23AM 17.0500 -65.7500 144° Southeast 490 564 33,000  Level San Juan Center
01:24AM 16.9333 -65.6667 146° Southeast 490 564 33,000  Level San Juan Center
01:25AM 16.8333 -65.5833 141° Southeast 490 564 33,000  Level San Juan Center
01:26AM 16.7167 -65.4833 141° Southeast 490 564 33,000  Level San Juan Center
01:27AM 16.6167 -65.4000 141° Southeast 490 564 33,000  Level San Juan Center
01:28AM 16.5000 -65.3167 146° Southeast 490 564 33,000  Level San Juan Center
01:29AM 16.4000 -65.2333 141° Southeast 490 564 33,000  Level San Juan Center
01:30AM 16.2833 -65.1500 146° Southeast 490 564 33,000  Level San Juan Center
01:31AM 16.1667 -65.0667 146° Southeast 500 575 33,000  Level San Juan Center
01:32AM 16.0667 -64.9667 136° Southeast 490 564 33,000  Level San Juan Center
01:33AM 15.9500 -64.8833 146° Southeast 490 564 33,000  Level San Juan Center
01:34AM 15.8500 -64.8167 147° Southeast 480 552 33,000  Level San Juan Center
01:35AM 15.7333 -64.7167 140° Southeast 500 575 33,000  Level San Juan Center
01:36AM 15.6333 -64.6333 141° Southeast 490 564 33,000  Level San Juan Center
01:37AM 15.5167 -64.5500 145° Southeast 490 564 33,000  Level San Juan Center
01:38AM 15.4167 -64.4667 141° Southeast 490 564 33,000 -60 Level San Juan Center
01:39AM 15.3000 -64.3667 140° Southeast 510 587 32,900  Descending San Juan Center
01:40AM 15.1833 -64.2833 145° Southeast 490 564 33,000  Climbing San Juan Center
02:12AM 11.6059 -61.5224 152° Southeast 485 558 33,000  Level FlightAware ADS-B (TTPP / POS)
02:13AM 11.4318 -62.1468 152° Southeast  Level FlightAware Approximate
02:13AM 11.5107 -61.4490 143° Southeast 484 557 33,000  Level FlightAware ADS-B (TTPP / POS)
02:19AM 10.9503 -61.0164 153° Southeast 484 557 33,000  Level FlightAware ADS-B (TTPP / POS)
02:19AM 10.8955 -60.9742 143° Southeast 483 556 33,000  Level FlightAware ADS-B (TTPP / POS)
02:20AM 10.8478 -60.9376 143° Southeast 483 556 33,000  Level FlightAware ADS-B (TTPP / POS)
02:20AM 10.7942 -60.8963 143° Southeast 483 556 33,000  Level FlightAware ADS-B (TTPP / POS)
02:21AM 10.7410 -60.8552 143° Southeast 483 556 33,000  Level FlightAware ADS-B (TTPP / POS)
02:21AM 10.6835 -60.8108 143° Southeast 484 557 33,000  Level FlightAware ADS-B (TTPP / POS)
02:22AM 10.6335 -60.7723 143° Southeast 484 557 33,000  Level FlightAware ADS-B (TTPP / POS)
02:22AM 10.5762 -60.7282 143° Southeast 483 556 33,000  Level FlightAware ADS-B (TTPP / POS)
02:23AM 10.5227 -60.6871 143° Southeast 483 556 33,000  Level FlightAware ADS-B (TTPP / POS)
02:23AM 10.4742 -60.6499 143° Southeast 483 556 33,000  Level FlightAware ADS-B (TTPP / POS)
02:23AM 10.4284 -60.6146 143° Southeast 485 558 33,000  Level FlightAware ADS-B (TTPP / POS)
02:24AM 10.3677 -60.5679 143° Southeast 486 559 33,000  Level FlightAware ADS-B (TTPP / POS)
02:24AM 10.3316 -60.5402 143° Southeast 487 560 33,000  Level FlightAware ADS-B (TTPP / POS)
02:25AM 10.2598 -60.4853 143° Southeast 488 562 33,000  Level FlightAware ADS-B (TTPP / POS)
02:25AM 10.2173 -60.4525 143° Southeast 488 562 33,000  Level FlightAware ADS-B (TTPP / POS)
02:26AM 10.1481 -60.3991 143° Southeast 488 562 33,000  Level FlightAware ADS-B (TTPP / POS)
02:26AM 10.1016 -60.3634 143° Southeast 490 564 33,000  Level FlightAware ADS-B (TTPP / POS)
02:27AM 10.0487 -60.3229 143° Southeast 490 564 33,000  Level FlightAware ADS-B (TTPP / POS)
02:27AM 9.9919 -60.2791 143° Southeast 490 564 33,000  Level FlightAware ADS-B (TTPP / POS)
02:28AM 9.9267 -60.2291 143° Southeast 490 564 33,000  Level FlightAware ADS-B (TTPP / POS)
02:29AM 9.8769 -60.1911 143° Southeast 491 565 33,000  Level FlightAware ADS-B (TTPP / POS)
02:29AM 9.8411 -60.1637 143° Southeast 491 565 33,000  Level FlightAware ADS-B (TTPP / POS)
02:30AM 9.7639 -60.1044 143° Southeast 491 565 33,000  Level FlightAware ADS-B (TTPP / POS)
02:30AM 9.7145 -60.0666 143° Southeast 491 565 33,000  Level FlightAware ADS-B (TTPP / POS)
02:30AM 9.6925 -60.0498 143° Southeast 491 565 33,000  Level FlightAware ADS-B (TTPP / POS)
02:31AM 9.6110 -59.9874 143° Southeast 491 565 33,000  Level FlightAware ADS-B (TTPP / POS)
02:32AM 9.5478 -59.9391 143° Southeast 492 566 33,000  Level FlightAware ADS-B (TTPP / POS)
02:32AM 9.5013 -59.9035 143° Southeast 491 565 33,000  Level FlightAware ADS-B (TTPP / POS)
02:33AM 9.4424 -59.8586 143° Southeast 491 565 33,000  Level FlightAware ADS-B (TTPP / POS)
02:33AM 9.3845 -59.8143 143° Southeast 492 566 33,000  Level FlightAware ADS-B (TTPP / POS)
02:34AM 9.3473 -59.7858 143° Southeast 492 566 33,000  Level FlightAware ADS-B (TTPP / POS)
02:34AM 9.3267 -59.7700 143° Southeast 492 566 33,000  Level FlightAware ADS-B (TTPP / POS)
02:34AM 9.2343 -59.6997 143° Southeast 492 566 33,000  Level FlightAware ADS-B (TTPP / POS)
02:35AM 9.1655 -59.6472 143° Southeast 493 567 33,000  Level FlightAware ADS-B (TTPP / POS)
02:36AM 9.0639 -59.5696 143° Southeast 493 567 33,000  Level FlightAware ADS-B (TTPP / POS)
02:37AM 9.0555 -59.5633 143° Southeast 494 568 33,000  Level FlightAware ADS-B (TTPP / POS)
02:37AM 8.9521 -59.4846 143° Southeast 495 570 33,000  Level FlightAware ADS-B (TTPP / POS)
02:38AM 8.8912 -59.4313 139° Southeast 497 572 33,000  Level FlightAware ADS-B (TTPP / POS)
02:38AM 8.8207 -59.3476 130° Southeast 498 573 33,000  Level FlightAware ADS-B (TTPP / POS)
02:39AM 8.7863 -59.3128 135° Southeast 498 573 33,000  Level FlightAware ADS-B (TTPP / POS)
02:40AM 8.6347 -59.2059 145° Southeast 498 573 33,000  Level FlightAware ADS-B (TTPP / POS)
02:40AM 8.6192 -59.1963 148° Southeast 498 573 33,000  Level FlightAware ADS-B (TTPP / POS)
02:43AM 8.3555 -59.0655 154° Southeast  Level Estimated
02:44AM 8.2374 -59.0070 154° Southeast  Level Estimated
02:45AM 8.1193 -58.9485 154° Southeast  Level Estimated
02:46AM 8.0012 -58.8900 154° Southeast  Level Estimated
02:47AM 7.8830 -58.8316 154° Southeast  Level Estimated
02:48AM 7.7649 -58.7732 154° Southeast  Level Estimated
02:49AM 7.6467 -58.7148 154° Southeast  Level Estimated
02:50AM 7.5286 -58.6565 154° Southeast  Level Estimated
02:51AM 7.4104 -58.5982 154° Southeast  Level Estimated
02:52AM 7.2923 -58.5400 154° Southeast  Level Estimated
02:53AM 7.1741 -58.4817 154° Southeast  Level Estimated
02:54AM 7.0559 -58.4235 154° Southeast  Level Estimated
02:55AM 6.9377 -58.3654 154° Southeast  Level Estimated
02:56AM 6.8195 -58.3072 154° Southeast  Level Estimated
02:57AM 6.7013 -58.2491 154° Southeast  Level Estimated
02:58AM 6.5831 -58.1910 154° Southeast  Level Estimated
02:59AM 6.4649 -58.1329 154° Southeast  Level Estimated
03:00AM 6.3467 -58.0749 154° Southeast  Level Estimated
03:01AM 6.2284 -58.0169 154° Southeast  Level Estimated
03:02AM 6.1102 -57.9589 154° Southeast  Level Estimated
03:03AM 5.9920 -57.9010 154° Southeast  Level Estimated
03:04AM 5.8737 -57.8430 154° Southeast  Level Estimated
03:05AM 5.7554 -57.7851 154° Southeast  Level Estimated
03:06AM 5.6372 -57.7273 154° Southeast  Level Estimated
03:07AM 5.5189 -57.6694 154° Southeast  Level Estimated
03:08AM 5.4007 -57.6116 154° Southeast  Level Estimated
03:09AM 5.2824 -57.5538 154° Southeast  Level Estimated
03:10AM 5.1641 -57.4960 154° Southeast  Level Estimated
03:11AM 5.0458 -57.4382 154° Southeast  Level Estimated
03:12AM 4.9275 -57.3805 154° Southeast  Level Estimated
03:13AM 4.8092 -57.3227 154° Southeast  Level Estimated
03:14AM 4.6909 -57.2650 154° Southeast  Level Estimated
03:15AM 4.5726 -57.2073 154° Southeast  Level Estimated
03:16AM 4.4543 -57.1497 154° Southeast  Level Estimated
03:17AM 4.3360 -57.0920 154° Southeast  Level Estimated
03:18AM 4.2176 -57.0344 154° Southeast  Level Estimated
03:19AM 4.0993 -56.9768 154° Southeast  Level Estimated
03:20AM 3.9810 -56.9192 154° Southeast  Level Estimated
03:21AM 3.8627 -56.8616 154° Southeast  Level Estimated
03:22AM 3.7443 -56.8040 154° Southeast  Level Estimated
03:23AM 3.6260 -56.7465 154° Southeast  Level Estimated
03:24AM 3.5076 -56.6889 154° Southeast  Level Estimated
03:25AM 3.3893 -56.6314 154° Southeast  Level Estimated
03:26AM 3.2709 -56.5739 154° Southeast  Level Estimated
03:27AM 3.1526 -56.5164 154° Southeast  Level Estimated
03:28AM 3.0342 -56.4590 154° Southeast  Level Estimated
03:29AM 2.9158 -56.4015 154° Southeast  Level Estimated
03:30AM 2.7975 -56.3441 154° Southeast  Level Estimated
03:31AM 2.6791 -56.2866 154° Southeast  Level Estimated
03:32AM 2.5607 -56.2292 154° Southeast  Level Estimated
03:33AM 2.4424 -56.1718 154° Southeast  Level Estimated
03:34AM 2.3240 -56.1143 154° Southeast  Level Estimated
03:35AM 2.2056 -56.0569 154° Southeast  Level Estimated
03:36AM 2.0872 -55.9996 154° Southeast  Level Estimated
03:37AM 1.9689 -55.9422 154° Southeast  Level Estimated
03:38AM 1.8505 -55.8848 154° Southeast  Level Estimated
03:39AM 1.7321 -55.8274 154° Southeast  Level Estimated
03:40AM 1.6137 -55.7701 154° Southeast  Level Estimated
03:41AM 1.4953 -55.7127 154° Southeast  Level Estimated
03:42AM 1.3800 -55.6569 154° Southeast  Level Estimated
03:43AM 1.2646 -55.6010 154° Southeast  Level Estimated
03:44AM 1.1493 -55.5451 154° Southeast  Level Estimated
03:45AM 1.0339 -55.4893 154° Southeast  Level Estimated
03:46AM 0.9186 -55.4334 154° Southeast  Level Estimated
03:47AM 0.8033 -55.3776 154° Southeast  Level Estimated
03:48AM 0.6879 -55.3218 154° Southeast  Level Estimated
03:49AM 0.5726 -55.2659 154° Southeast  Level Estimated
03:50AM 0.4572 -55.2101 154° Southeast  Level Estimated
03:51AM 0.3419 -55.1543 154° Southeast  Level Estimated
03:52AM 0.2265 -55.0984 154° Southeast  Level Estimated
03:53AM 0.1112 -55.0426 154° Southeast  Level Estimated
03:54AM -0.0042 -54.9868 154° Southeast  Level Estimated
03:55AM -0.1195 -54.9309 154° Southeast  Level Estimated
03:56AM -0.2349 -54.8751 154° Southeast  Level Estimated
03:57AM -0.3502 -54.8193 154° Southeast  Level Estimated
03:58AM -0.4656 -54.7634 154° Southeast  Level Estimated
03:59AM -0.5809 -54.7076 154° Southeast  Level Estimated
04:00AM -0.6963 -54.6518 154° Southeast  Level Estimated
04:01AM -0.8116 -54.5959 154° Southeast  Level Estimated
04:02AM -0.9270 -54.5401 154° Southeast  Level Estimated
04:03AM -1.0423 -54.4842 154° Southeast  Level Estimated
04:04AM -1.1576 -54.4284 154° Southeast  Level Estimated
04:05AM -1.2730 -54.3725 154° Southeast  Level Estimated
04:06AM -1.3883 -54.3167 154° Southeast  Level Estimated
04:07AM -1.5037 -54.2608 154° Southeast  Level Estimated
04:08AM -1.6190 -54.2049 154° Southeast  Level Estimated
04:09AM -1.7343 -54.1490 154° Southeast  Level Estimated
04:10AM -1.8497 -54.0931 154° Southeast  Level Estimated
04:11AM -1.9650 -54.0373 154° Southeast  Level Estimated
04:12AM -2.0803 -53.9813 154° Southeast  Level Estimated
04:13AM -2.1957 -53.9254 154° Southeast  Level Estimated
04:14AM -2.3110 -53.8695 154° Southeast  Level Estimated
04:15AM -2.4263 -53.8136 154° Southeast  Level Estimated
04:16AM -2.5416 -53.7576 154° Southeast  Level Estimated
04:17AM -2.6569 -53.7017 154° Southeast  Level Estimated
04:18AM -2.7723 -53.6457 154° Southeast  Level Estimated
04:19AM -2.8876 -53.5898 154° Southeast  Level Estimated
04:20AM -3.0029 -53.5338 154° Southeast  Level Estimated
04:21AM -3.1182 -53.4778 154° Southeast  Level Estimated
04:22AM -3.2335 -53.4218 154° Southeast  Level Estimated
04:23AM -3.3488 -53.3658 154° Southeast  Level Estimated
04:24AM -3.4641 -53.3097 154° Southeast  Level Estimated
04:25AM -3.5794 -53.2537 154° Southeast  Level Estimated
04:26AM -3.6947 -53.1977 154° Southeast  Level Estimated
04:27AM -3.8100 -53.1416 154° Southeast  Level Estimated
04:28AM -3.9253 -53.0855 154° Southeast  Level Estimated
04:29AM -4.0406 -53.0294 154° Southeast  Level Estimated
04:30AM -4.1558 -52.9733 154° Southeast  Level Estimated
04:31AM -4.2711 -52.9171 154° Southeast  Level Estimated
04:32AM -4.3864 -52.8610 154° Southeast  Level Estimated
04:33AM -4.5016 -52.8048 154° Southeast  Level Estimated
04:34AM -4.6169 -52.7486 154° Southeast  Level Estimated
04:35AM -4.7322 -52.6924 154° Southeast  Level Estimated
04:36AM -4.8474 -52.6362 154° Southeast  Level Estimated
04:37AM -4.9627 -52.5799 154° Southeast  Level Estimated
04:38AM -5.0779 -52.5237 154° Southeast  Level Estimated
04:39AM -5.1932 -52.4674 154° Southeast  Level Estimated
04:40AM -5.3084 -52.4111 154° Southeast  Level Estimated
04:41AM -5.4236 -52.3548 154° Southeast  Level Estimated
04:42AM -5.5388 -52.2984 154° Southeast  Level Estimated
04:43AM -5.6540 -52.2421 154° Southeast  Level Estimated
04:44AM -5.7693 -52.1857 154° Southeast  Level Estimated
04:45AM -5.8845 -52.1293 154° Southeast  Level Estimated
04:46AM -5.9997 -52.0728 154° Southeast  Level Estimated
04:47AM -6.1149 -52.0164 154° Southeast  Level Estimated
04:48AM -6.2301 -51.9599 154° Southeast  Level Estimated
04:49AM -6.3452 -51.9034 154° Southeast  Level Estimated
04:50AM -6.4604 -51.8468 154° Southeast  Level Estimated
04:51AM -6.5756 -51.7903 154° Southeast  Level Estimated
04:52AM -6.6907 -51.7337 154° Southeast  Level Estimated
04:53AM -6.8059 -51.6771 154° Southeast  Level Estimated
04:54AM -6.9211 -51.6204 154° Southeast  Level Estimated
04:55AM -7.0360 -51.5639 154° Southeast  Level Estimated
04:56AM -7.1509 -51.5073 154° Southeast  Level Estimated
04:57AM -7.2658 -51.4507 154° Southeast  Level Estimated
04:58AM -7.3807 -51.3940 154° Southeast  Level Estimated
04:59AM -7.4956 -51.3373 154° Southeast  Level Estimated
05:00AM -7.6105 -51.2806 154° Southeast  Level Estimated
05:01AM -7.7254 -51.2239 154° Southeast  Level Estimated
05:02AM -7.8403 -51.1671 154° Southeast  Level Estimated
05:03AM -7.9552 -51.1103 154° Southeast  Level Estimated
05:04AM -8.0701 -51.0535 154° Southeast  Level Estimated
05:05AM -8.1849 -50.9966 154° Southeast  Level Estimated
05:06AM -8.2998 -50.9397 154° Southeast  Level Estimated
05:07AM -8.4146 -50.8828 154° Southeast  Level Estimated
05:08AM -8.5294 -50.8258 154° Southeast  Level Estimated
05:09AM -8.6443 -50.7688 154° Southeast  Level Estimated
05:10AM -8.7591 -50.7118 154° Southeast  Level Estimated
05:11AM -8.8739 -50.6547 154° Southeast  Level Estimated
05:12AM -8.9887 -50.5976 154° Southeast  Level Estimated
05:13AM -9.1035 -50.5405 154° Southeast  Level Estimated
05:14AM -9.2183 -50.4833 154° Southeast  Level Estimated
05:15AM -9.3330 -50.4260 154° Southeast  Level Estimated
05:16AM -9.4478 -50.3688 154° Southeast  Level Estimated
05:17AM -9.5626 -50.3115 154° Southeast  Level Estimated
05:18AM -9.6773 -50.2542 154° Southeast  Level Estimated
05:19AM -9.7921 -50.1968 154° Southeast  Level Estimated
05:20AM -9.9068 -50.1394 154° Southeast  Level Estimated
05:21AM -10.0215 -50.0820 154° Southeast  Level Estimated
05:22AM -10.1362 -50.0245 154° Southeast  Level Estimated
05:23AM -10.2509 -49.9669 154° Southeast  Level Estimated
05:24AM -10.3656 -49.9094 154° Southeast  Level Estimated
05:25AM -10.4803 -49.8517 154° Southeast  Level Estimated
05:26AM -10.5950 -49.7941 154° Southeast  Level Estimated
05:27AM -10.7096 -49.7364 154° Southeast  Level Estimated
05:28AM -10.8243 -49.6786 154° Southeast  Level Estimated
05:29AM -10.9389 -49.6208 154° Southeast  Level Estimated
05:30AM -11.0535 -49.5630 154° Southeast  Level Estimated
05:31AM -11.1681 -49.5051 154° Southeast  Level Estimated
05:32AM -11.2827 -49.4472 154° Southeast  Level Estimated
05:33AM -11.3973 -49.3893 154° Southeast  Level Estimated
05:34AM -11.5119 -49.3312 154° Southeast  Level Estimated
05:35AM -11.6265 -49.2732 154° Southeast  Level Estimated
05:36AM -11.7410 -49.2150 154° Southeast  Level Estimated
05:37AM -11.8556 -49.1569 154° Southeast  Level Estimated
05:38AM -11.9701 -49.0987 154° Southeast  Level Estimated
05:39AM -12.0846 -49.0404 154° Southeast  Level Estimated
05:40AM -12.1991 -48.9821 154° Southeast  Level Estimated
05:41AM -12.3136 -48.9238 154° Southeast  Level Estimated
05:42AM -12.4281 -48.8653 154° Southeast  Level Estimated
05:43AM -12.5426 -48.8069 154° Southeast  Level Estimated
05:44AM -12.6571 -48.7484 153° Southeast  Level Estimated
05:45AM -12.7715 -48.6898 153° Southeast  Level Estimated
05:46AM -12.8859 -48.6312 153° Southeast  Level Estimated
05:47AM -13.0003 -48.5725 153° Southeast  Level Estimated
05:48AM -13.1148 -48.5138 153° Southeast  Level Estimated
05:49AM -13.2291 -48.4550 153° Southeast  Level Estimated
05:50AM -13.3435 -48.3962 153° Southeast  Level Estimated
05:51AM -13.4579 -48.3373 153° Southeast  Level Estimated
05:52AM -13.5723 -48.2783 153° Southeast  Level Estimated
05:53AM -13.6866 -48.2193 153° Southeast  Level Estimated
05:54AM -13.8009 -48.1603 153° Southeast  Level Estimated
05:55AM -13.9152 -48.1011 153° Southeast  Level Estimated
05:56AM -14.0295 -48.0420 153° Southeast  Level Estimated
05:57AM -14.1438 -47.9827 153° Southeast  Level Estimated
05:58AM -14.2581 -47.9234 153° Southeast  Level Estimated
05:59AM -14.3723 -47.8641 153° Southeast  Level Estimated
06:00AM -14.4866 -47.8046 153° Southeast  Level Estimated
06:01AM -14.6008 -47.7452 153° Southeast  Level Estimated
06:02AM -14.7150 -47.6856 153° Southeast  Level Estimated
06:03AM -14.8292 -47.6260 153° Southeast  Level Estimated
06:04AM -14.9434 -47.5663 153° Southeast  Level Estimated
06:05AM -15.0575 -47.5066 153° Southeast  Level Estimated
06:06AM -15.1717 -47.4468 153° Southeast  Level Estimated
06:07AM -15.2852 -47.3873 153° Southeast  Level Estimated
06:08AM -15.3987 -47.3277 153° Southeast  Level Estimated
06:09AM -15.5121 -47.2680 153° Southeast  Level Estimated
06:10AM -15.6256 -47.2083 153° Southeast  Level Estimated
06:11AM -15.7390 -47.1485 153° Southeast  Level Estimated
06:12AM -15.8525 -47.0886 153° Southeast  Level Estimated
06:13AM -15.9659 -47.0287 153° Southeast  Level Estimated
06:14AM -16.0793 -46.9687 153° Southeast  Level Estimated
06:15AM -16.1926 -46.9087 153° Southeast  Level Estimated
06:16AM -16.3060 -46.8485 153° Southeast  Level Estimated
06:17AM -16.4193 -46.7883 153° Southeast  Level Estimated
06:18AM -16.5326 -46.7281 153° Southeast  Level Estimated
06:19AM -16.6460 -46.6677 153° Southeast  Level Estimated
06:20AM -16.7593 -46.6073 153° Southeast  Level Estimated
06:21AM -16.8725 -46.5468 153° Southeast  Level Estimated
06:22AM -16.9858 -46.4863 153° Southeast  Level Estimated
06:23AM -17.0990 -46.4256 153° Southeast  Level Estimated
06:24AM -17.2122 -46.3649 153° Southeast  Level Estimated
06:25AM -17.3254 -46.3041 153° Southeast  Level Estimated
06:26AM -17.4386 -46.2433 153° Southeast  Level Estimated
06:27AM -17.5518 -46.1824 153° Southeast  Level Estimated
06:28AM -17.6649 -46.1213 153° Southeast  Level Estimated
06:29AM -17.7780 -46.0603 153° Southeast  Level Estimated
06:30AM -17.8911 -45.9991 153° Southeast  Level Estimated
06:31AM -18.0042 -45.9379 153° Southeast  Level Estimated
06:32AM -18.1173 -45.8765 153° Southeast  Level Estimated
06:33AM -18.2304 -45.8151 153° Southeast  Level Estimated
06:34AM -18.3434 -45.7537 153° Southeast  Level Estimated
06:35AM -18.4564 -45.6921 153° Southeast  Level Estimated
06:36AM -18.5694 -45.6305 153° Southeast  Level Estimated
06:37AM -18.6824 -45.5687 153° Southeast  Level Estimated
06:38AM -18.7953 -45.5069 153° Southeast  Level Estimated
06:39AM -18.9082 -45.4450 153° Southeast  Level Estimated
06:40AM -19.0212 -45.3831 153° Southeast  Level Estimated
06:41AM -19.1340 -45.3210 153° Southeast  Level Estimated
06:42AM -19.2469 -45.2589 153° Southeast  Level Estimated
06:43AM -19.3598 -45.1967 153° Southeast  Level Estimated
06:44AM -19.4726 -45.1344 152° Southeast  Level Estimated
06:45AM -19.5854 -45.0720 152° Southeast  Level Estimated
06:46AM -19.6982 -45.0095 152° Southeast  Level Estimated
06:47AM -19.8109 -44.9469 152° Southeast  Level Estimated
06:48AM -19.9237 -44.8843 152° Southeast  Level Estimated
06:49AM -20.0360 -44.8217 152° Southeast  Level Estimated
06:50AM -20.1483 -44.7591 152° Southeast  Level Estimated
06:51AM -20.2605 -44.6964 152° Southeast  Level Estimated
06:52AM -20.3727 -44.6336 152° Southeast  Level Estimated
06:53AM -20.4850 -44.5708 152° Southeast  Level Estimated
06:54AM -20.5972 -44.5078 152° Southeast  Level Estimated
06:55AM -20.7093 -44.4447 152° Southeast  Level Estimated
06:56AM -20.8215 -44.3815 152° Southeast  Level Estimated
06:57AM -20.9336 -44.3183 152° Southeast  Level Estimated
06:58AM -21.0457 -44.2549 152° Southeast  Level Estimated
06:59AM -21.1578 -44.1915 152° Southeast  Level Estimated
07:00AM -21.2698 -44.1279 152° Southeast  Level Estimated
07:01AM -21.3819 -44.0643 152° Southeast  Level Estimated
07:02AM -21.4939 -44.0006 152° Southeast  Level Estimated
07:03AM -21.6059 -43.9367 152° Southeast  Level Estimated
07:04AM -21.7178 -43.8728 152° Southeast  Level Estimated
07:05AM -21.8297 -43.8088 152° Southeast  Level Estimated
07:06AM -21.9417 -43.7446 152° Southeast  Level Estimated
07:07AM -22.0535 -43.6804 152° Southeast  Level Estimated
07:08AM -22.1654 -43.6161 152° Southeast  Level Estimated
07:09AM -22.2772 -43.5516 152° Southeast  Level Estimated
07:10AM -22.3890 -43.4871 152° Southeast  Level Estimated
07:11AM -22.5008 -43.4224 152° Southeast  Level Estimated
07:12AM -22.6126 -43.3577 152° Southeast  Level Estimated
07:13AM -22.7243 -43.2928 152° Southeast  Level Estimated
07:14AM -22.8089 -43.2436 152° Southeast  Level Estimated
07:15AM -22.8089 -43.2436 137° Southeast  Level Estimated
07:16AM -22.8089 -43.2436 137° Southeast  Level Estimated
07:17AM -22.8089 -43.2436 137° Southeast  Level Estimated
07:18AM -22.8089 -43.2436 137° Southeast  Level Estimated
07:19AM -22.8089 -43.2436 137° Southeast  Level Estimated
07:20AM -22.8089 -43.2436 137° Southeast  Level Estimated
07:21AM -22.8089 -43.2436 137° Southeast  Level Estimated
07:22AM -22.8089 -43.2436 137° Southeast  Level Estimated
07:23AM -22.8089 -43.2436 137° Southeast  Level Estimated
07:24AM -22.8089 -43.2436 137° Southeast  Level Estimated
07:25AM -22.8089 -43.2436 137° Southeast  Level Estimated
07:26AM -22.8089 -43.2436 137° Southeast  Level Estimated
07:27AM -22.8089 -43.2436 137° Southeast  Level Estimated
07:28AM -22.8089 -43.2436 137° Southeast  Level Estimated
07:29AM -22.8089 -43.2436 137° Southeast  Level Estimated
07:30AM -22.8089 -43.2436 137° Southeast  Level Estimated
07:31AM -22.8089 -43.2436 137° Southeast  Level Estimated
07:32AM -22.8089 -43.2436 137° Southeast  Level Estimated